Time;durP1;ratioP1;P1;durP2;ratioP2;P2;SDS_P1;SDS_P2;PMS_P1;PMS_P2;Temp;Humidity;BMP_temperature;BMP_pressure;BME280_temperature;BME280_humidity;BME280_pressure;Samples;Min_cycle;Max_cycle;Signal;HPM_P1;HPM_P2
2020/12/02 00:00:59;;;;;;;36.80;23.63;;;2.20;1.00;;;;;;5072763;28;20446;-54
2020/12/02 00:03:32;;;;;;;37.97;22.97;;;2.20;1.00;;;;;;5073217;28;20436;-56
2020/12/02 00:05:58;;;;;;;33.00;22.73;;;2.30;1.00;;;;;;5075283;28;20503;-55
2020/12/02 00:09:00;;;;;;;39.90;23.33;;;2.20;1.00;;;;;;5078300;28;20443;-54
2020/12/02 00:11:27;;;;;;;38.20;23.17;;;2.20;1.00;;;;;;5045181;28;20209;-54
2020/12/02 00:13:57;;;;;;;34.77;20.87;;;2.20;1.00;;;;;;5057290;28;20416;-55
2020/12/02 00:16:26;;;;;;;35.30;24.07;;;2.10;1.00;;;;;;5063135;28;20895;-56
2020/12/02 00:18:53;;;;;;;38.00;21.80;;;2.10;1.00;;;;;;5076821;28;20428;-56
2020/12/02 00:21:23;;;;;;;34.03;20.93;;;2.20;1.00;;;;;;5076779;28;20897;-55
2020/12/02 00:23:52;;;;;;;36.97;21.30;;;2.20;1.00;;;;;;5076875;28;20423;-56
2020/12/02 00:26:19;;;;;;;37.40;22.70;;;2.20;1.00;;;;;;5076505;28;20467;-56
2020/12/02 00:28:45;;;;;;;37.90;23.63;;;2.30;1.00;;;;;;5076356;28;20432;-56
2020/12/02 00:31:12;;;;;;;33.37;21.57;;;2.30;1.00;;;;;;5076391;28;20425;-55
2020/12/02 00:33:38;;;;;;;37.07;23.50;;;2.20;1.00;;;;;;5076121;28;20895;-55
2020/12/02 00:36:04;;;;;;;39.70;24.27;;;2.10;1.00;;;;;;5077285;28;20436;-55
2020/12/02 00:38:29;;;;;;;35.30;22.80;;;2.10;1.00;;;;;;5077373;28;20671;-55
2020/12/02 00:40:55;;;;;;;39.07;24.27;;;2.10;1.00;;;;;;5076863;28;20496;-55
2020/12/02 00:43:24;;;;;;;38.47;23.87;;;2.10;1.00;;;;;;5076427;28;20199;-54
2020/12/02 00:45:53;;;;;;;39.87;23.23;;;2.10;1.00;;;;;;5075906;28;20852;-55
2020/12/02 00:48:21;;;;;;;35.33;21.93;;;2.10;1.00;;;;;;5075471;28;20426;-55
2020/12/02 00:50:48;;;;;;;37.07;23.10;;;2.20;1.00;;;;;;5076089;28;20424;-52
2020/12/02 00:53:18;;;;;;;35.73;22.60;;;2.20;1.00;;;;;;5082114;28;20437;-53
2020/12/02 00:55:45;;;;;;;34.83;21.40;;;2.20;1.00;;;;;;5076170;28;20443;-56
2020/12/02 00:58:32;;;;;;;39.20;21.53;;;2.20;1.00;;;;;;5076227;28;20910;-56
2020/12/02 01:01:02;;;;;;;35.37;21.97;;;2.20;1.00;;;;;;5075571;28;20419;-55
2020/12/02 01:03:30;;;;;;;35.73;23.20;;;2.20;1.00;;;;;;5074457;28;20448;-55
2020/12/02 01:05:59;;;;;;;31.37;20.77;;;2.20;1.00;;;;;;5075803;28;20455;-53
2020/12/02 01:08:37;;;;;;;41.03;24.50;;;2.20;1.00;;;;;;5075650;28;20491;-56
2020/12/02 01:11:22;;;;;;;37.40;21.57;;;2.20;1.00;;;;;;5074914;28;20762;-54
2020/12/02 01:14:01;;;;;;;38.10;22.17;;;2.10;1.00;;;;;;5075640;28;20401;-54
2020/12/02 01:16:35;;;;;;;36.00;20.93;;;2.10;1.00;;;;;;5071959;28;20440;-56
2020/12/02 01:19:02;;;;;;;35.23;21.67;;;2.00;1.00;;;;;;5075572;28;20435;-54
2020/12/02 01:21:44;;;;;;;37.40;22.50;;;2.00;1.00;;;;;;5075448;28;20431;-54
2020/12/02 01:24:19;;;;;;;33.03;21.97;;;2.00;1.00;;;;;;5075625;28;20851;-57
2020/12/02 01:26:51;;;;;;;34.20;21.10;;;2.00;1.00;;;;;;5075338;28;20423;-54
2020/12/02 01:29:20;;;;;;;30.83;21.17;;;2.00;1.00;;;;;;5075293;28;20432;-56
2020/12/02 01:31:55;;;;;;;34.83;23.03;;;2.00;1.00;;;;;;5075376;28;20428;-56
2020/12/02 01:34:21;;;;;;;35.07;22.87;;;2.00;1.00;;;;;;5075438;28;20854;-54
2020/12/02 01:37:00;;;;;;;36.37;23.00;;;2.00;1.00;;;;;;5074981;28;20433;-55
2020/12/02 01:39:30;;;;;;;40.60;22.07;;;1.90;1.00;;;;;;5074328;28;20421;-54
2020/12/02 01:41:55;;;;;;;37.30;22.70;;;1.90;1.00;;;;;;5075380;28;20451;-55
2020/12/02 01:44:22;;;;;;;38.23;23.77;;;1.90;1.00;;;;;;5073755;28;20498;-57
2020/12/02 01:47:14;;;;;;;41.50;23.67;;;1.80;1.00;;;;;;5075145;28;20171;-57
2020/12/02 01:50:12;;;;;;;37.30;24.63;;;1.90;1.00;;;;;;5075258;28;20464;-56
2020/12/02 01:52:49;;;;;;;39.60;22.37;;;1.90;1.00;;;;;;5074870;28;20500;-55
2020/12/02 01:55:23;;;;;;;36.63;21.53;;;1.80;1.00;;;;;;5074026;28;20429;-54
2020/12/02 01:57:53;;;;;;;42.27;24.77;;;1.80;1.00;;;;;;5073709;28;20431;-56
2020/12/02 02:00:25;;;;;;;40.37;21.77;;;1.80;1.00;;;;;;5075150;28;20477;-57
2020/12/02 02:02:59;;;;;;;36.40;23.43;;;1.80;1.00;;;;;;5074876;28;20413;-57
2020/12/02 02:05:53;;;;;;;41.10;22.60;;;1.80;1.00;;;;;;5073870;28;20453;-56
2020/12/02 02:08:22;;;;;;;40.80;24.23;;;1.70;1.00;;;;;;5074800;28;20434;-54
2020/12/02 02:10:50;;;;;;;43.20;24.87;;;1.70;1.00;;;;;;5074775;28;20427;-56
2020/12/02 02:13:34;;;;;;;39.80;23.63;;;1.80;1.00;;;;;;5074511;28;20510;-55
2020/12/02 02:16:06;;;;;;;36.47;22.60;;;1.80;1.00;;;;;;5074187;28;20768;-55
2020/12/02 02:18:32;;;;;;;32.63;21.60;;;1.70;1.00;;;;;;5073559;28;20898;-55
2020/12/02 02:21:04;;;;;;;34.47;22.10;;;1.70;1.00;;;;;;5074630;28;21068;-53
2020/12/02 02:23:30;;;;;;;38.53;22.53;;;1.70;1.00;;;;;;5073452;28;20208;-53
2020/12/02 02:26:13;;;;;;;36.63;22.23;;;1.70;1.00;;;;;;5073972;28;20502;-53
2020/12/02 02:28:53;;;;;;;35.10;21.47;;;1.60;1.00;;;;;;5072858;28;20174;-53
2020/12/02 02:31:20;;;;;;;34.73;21.80;;;1.70;1.00;;;;;;5074613;28;20396;-55
2020/12/02 02:33:48;;;;;;;42.17;25.00;;;1.70;1.00;;;;;;5073711;28;20487;-54
2020/12/02 02:36:16;;;;;;;34.87;22.60;;;1.60;1.00;;;;;;5074238;28;20422;-55
2020/12/02 02:38:42;;;;;;;34.37;21.70;;;1.60;1.00;;;;;;5074100;28;20426;-55
2020/12/02 02:41:09;;;;;;;34.27;22.37;;;1.60;1.00;;;;;;5072046;28;20463;-53
2020/12/02 02:43:36;;;;;;;36.10;23.20;;;1.60;1.00;;;;;;5071919;28;20173;-56
2020/12/02 02:46:02;;;;;;;38.37;23.83;;;1.70;1.00;;;;;;5072590;28;20474;-53
2020/12/02 02:48:28;;;;;;;35.17;23.10;;;1.70;1.00;;;;;;5071767;28;20515;-53
2020/12/02 02:50:54;;;;;;;38.80;22.40;;;1.70;1.00;;;;;;5072178;28;20985;-53
2020/12/02 02:53:22;;;;;;;34.70;22.77;;;1.60;1.00;;;;;;5072221;28;20180;-55
2020/12/02 02:55:49;;;;;;;39.77;23.27;;;1.60;1.00;;;;;;5072096;28;20454;-55
2020/12/02 02:58:15;;;;;;;43.63;24.40;;;1.60;1.00;;;;;;5071790;28;20449;-53
2020/12/02 03:00:41;;;;;;;37.57;24.00;;;1.50;1.00;;;;;;5071841;28;20472;-53
2020/12/02 03:03:09;;;;;;;34.23;23.87;;;1.50;1.00;;;;;;5071130;28;20543;-54
2020/12/02 03:05:35;;;;;;;36.80;23.10;;;1.50;1.00;;;;;;5072221;28;20462;-55
2020/12/02 03:08:10;;;;;;;32.23;22.10;;;1.50;1.00;;;;;;5071293;28;20440;-55
2020/12/02 03:10:40;;;;;;;36.77;22.30;;;1.40;1.00;;;;;;5071404;28;20448;-55
2020/12/02 03:13:27;;;;;;;33.60;22.30;;;1.40;1.00;;;;;;5071754;28;20453;-54
2020/12/02 03:15:53;;;;;;;35.80;22.80;;;1.40;1.00;;;;;;5071929;28;20573;-54
2020/12/02 03:18:19;;;;;;;34.93;22.97;;;1.40;1.00;;;;;;5071372;28;20441;-53
2020/12/02 03:20:52;;;;;;;37.03;23.47;;;1.50;1.00;;;;;;5073522;28;21114;-55
2020/12/02 03:23:19;;;;;;;38.47;24.43;;;1.50;1.00;;;;;;5071084;28;20434;-53
2020/12/02 03:25:46;;;;;;;35.97;22.63;;;1.50;1.00;;;;;;5072618;28;20938;-55
2020/12/02 03:28:12;;;;;;;35.70;23.47;;;1.50;1.00;;;;;;5070072;28;20528;-54
2020/12/02 03:30:39;;;;;;;41.00;24.37;;;1.60;1.00;;;;;;5072208;28;20440;-54
2020/12/02 03:33:08;;;;;;;37.87;23.93;;;1.60;1.00;;;;;;5073214;28;20452;-54
2020/12/02 03:35:34;;;;;;;38.90;24.17;;;1.70;1.00;;;;;;5073204;28;20906;-53
2020/12/02 03:37:59;;;;;;;32.90;22.33;;;1.60;1.00;;;;;;5071919;28;20502;-55
2020/12/02 03:40:25;;;;;;;38.97;24.57;;;1.60;1.00;;;;;;5071235;28;20516;-53
2020/12/02 03:42:51;;;;;;;35.13;23.47;;;1.60;1.00;;;;;;5073240;28;20180;-53
2020/12/02 03:45:18;;;;;;;35.63;21.90;;;1.60;1.00;;;;;;5072861;28;20539;-56
2020/12/02 03:47:44;;;;;;;35.37;22.23;;;1.60;1.00;;;;;;5073047;28;20441;-53
2020/12/02 03:50:12;;;;;;;40.53;23.80;;;1.60;1.00;;;;;;5071587;28;20435;-53
2020/12/02 03:52:38;;;;;;;33.47;23.33;;;1.60;1.00;;;;;;5073109;28;20477;-53
2020/12/02 03:55:04;;;;;;;36.70;25.03;;;1.60;1.00;;;;;;5072969;28;20435;-55
2020/12/02 03:57:30;;;;;;;37.27;24.40;;;1.60;1.00;;;;;;5073221;28;20314;-55
2020/12/02 03:59:56;;;;;;;43.17;24.00;;;1.60;1.00;;;;;;5072479;28;20539;-55
2020/12/02 04:02:22;;;;;;;33.93;23.93;;;1.70;1.00;;;;;;5072577;28;20172;-56
2020/12/02 04:04:47;;;;;;;43.67;24.60;;;1.70;1.00;;;;;;5072884;28;20924;-55
2020/12/02 04:07:13;;;;;;;39.00;24.17;;;1.70;1.00;;;;;;5072992;28;20185;-54
2020/12/02 04:09:39;;;;;;;41.20;23.40;;;1.70;1.00;;;;;;5072957;28;20165;-54
2020/12/02 04:12:05;;;;;;;41.27;24.40;;;1.70;1.00;;;;;;5072843;28;20447;-53
2020/12/02 04:14:31;;;;;;;37.20;23.13;;;1.60;1.00;;;;;;5071401;28;20633;-57
2020/12/02 04:16:56;;;;;;;41.23;25.10;;;1.60;1.00;;;;;;5071225;28;20445;-55
2020/12/02 04:19:22;;;;;;;38.17;23.77;;;1.70;1.00;;;;;;5071465;28;20184;-55
2020/12/02 04:21:48;;;;;;;39.80;24.20;;;1.60;1.00;;;;;;5072709;28;20173;-55
2020/12/02 04:24:13;;;;;;;41.13;24.67;;;1.70;1.00;;;;;;5071730;28;20172;-53
2020/12/02 04:26:39;;;;;;;39.60;25.30;;;1.70;1.00;;;;;;5072736;28;20598;-55
2020/12/02 04:29:05;;;;;;;36.50;22.67;;;1.70;1.00;;;;;;5072229;28;20179;-56
2020/12/02 04:31:31;;;;;;;40.93;24.93;;;1.70;1.00;;;;;;5071355;28;20266;-55
2020/12/02 04:33:57;;;;;;;40.10;24.77;;;1.80;1.00;;;;;;5072578;28;20211;-56
2020/12/02 04:36:23;;;;;;;35.47;24.37;;;1.80;1.00;;;;;;5072784;28;20466;-54
2020/12/02 04:38:49;;;;;;;39.90;23.70;;;1.80;1.00;;;;;;5071519;28;20591;-56
2020/12/02 04:41:17;;;;;;;38.97;25.07;;;1.80;1.00;;;;;;5071601;28;20505;-55
2020/12/02 04:43:47;;;;;;;40.00;25.37;;;1.80;1.00;;;;;;5072608;28;20805;-55
2020/12/02 04:46:16;;;;;;;38.93;23.30;;;1.80;1.00;;;;;;5071544;28;20599;-55
2020/12/02 04:48:49;;;;;;;36.67;22.97;;;1.80;1.00;;;;;;5072500;28;20433;-55
2020/12/02 04:51:27;;;;;;;39.43;24.73;;;1.80;1.00;;;;;;5071979;28;20411;-53
2020/12/02 04:53:56;;;;;;;33.80;21.70;;;1.80;1.00;;;;;;5075822;28;20442;-55
2020/12/02 04:56:26;;;;;;;35.60;23.07;;;1.90;1.00;;;;;;5075085;28;20443;-55
2020/12/02 04:58:54;;;;;;;35.73;25.50;;;1.90;1.00;;;;;;5075197;28;20847;-55
2020/12/02 05:01:23;;;;;;;36.40;22.53;;;1.90;1.00;;;;;;5075369;28;20517;-56
2020/12/02 05:04:13;;;;;;;39.50;25.13;;;2.00;1.00;;;;;;5074111;28;20541;-56
2020/12/02 05:06:41;;;;;;;40.10;24.60;;;1.70;1.00;;;;;;5056151;28;20870;-56
2020/12/02 05:09:23;;;;;;;35.60;24.23;;;1.90;1.00;;;;;;5056211;28;20418;-53
2020/12/02 05:11:59;;;;;;;37.67;26.13;;;1.90;1.00;;;;;;5054937;28;20435;-60
2020/12/02 05:14:38;;;;;;;41.60;24.93;;;1.90;1.00;;;;;;5061624;28;20429;-56
2020/12/02 05:17:22;;;;;;;36.40;23.63;;;1.90;1.00;;;;;;5076311;28;20893;-55
2020/12/02 05:20:02;;;;;;;41.67;26.00;;;1.90;1.00;;;;;;5076270;28;20452;-58
2020/12/02 05:22:27;;;;;;;36.97;23.60;;;1.80;1.00;;;;;;5075399;28;20418;-56
2020/12/02 05:24:53;;;;;;;45.40;26.40;;;1.80;1.00;;;;;;5075819;28;20468;-55
2020/12/02 05:27:21;;;;;;;35.67;23.20;;;1.90;1.00;;;;;;5075699;28;20208;-55
2020/12/02 05:30:15;;;;;;;36.20;24.30;;;1.90;1.00;;;;;;5072465;28;20176;-55
2020/12/02 05:32:41;;;;;;;45.87;26.83;;;1.80;1.00;;;;;;5074984;28;20423;-56
2020/12/02 05:35:14;;;;;;;38.50;23.53;;;1.90;1.00;;;;;;5075397;28;20432;-53
2020/12/02 05:37:53;;;;;;;39.53;22.57;;;1.90;1.00;;;;;;5076210;28;20158;-53
2020/12/02 05:40:21;;;;;;;38.10;23.80;;;1.80;1.00;;;;;;5075189;28;20468;-56
2020/12/02 05:42:59;;;;;;;39.20;25.67;;;1.90;1.00;;;;;;5075687;28;20816;-56
2020/12/02 05:45:47;;;;;;;41.93;26.10;;;2.00;1.00;;;;;;5075785;28;20477;-55
2020/12/02 05:48:23;;;;;;;39.00;25.30;;;1.90;1.00;;;;;;5075380;28;20922;-53
2020/12/02 05:50:52;;;;;;;44.63;24.93;;;1.90;1.00;;;;;;5075585;28;20441;-53
2020/12/02 05:53:45;;;;;;;44.97;26.17;;;1.90;1.00;;;;;;5075583;28;20511;-56
2020/12/02 05:56:11;;;;;;;39.00;25.27;;;1.80;1.00;;;;;;5068618;28;20537;-53
2020/12/02 05:58:41;;;;;;;40.07;24.47;;;1.90;1.00;;;;;;5074676;28;20436;-58
2020/12/02 06:01:11;;;;;;;36.03;23.73;;;1.70;1.00;;;;;;5075600;28;20178;-54
2020/12/02 06:03:39;;;;;;;42.10;26.50;;;1.80;1.00;;;;;;5075190;28;20431;-55
2020/12/02 06:06:07;;;;;;;40.10;26.00;;;1.60;1.00;;;;;;5075357;28;20999;-53
2020/12/02 06:08:37;;;;;;;39.00;25.10;;;1.70;1.00;;;;;;5075404;28;20413;-53
2020/12/02 06:11:15;;;;;;;48.30;25.97;;;1.70;1.00;;;;;;5074369;28;20431;-53
2020/12/02 06:13:50;;;;;;;37.83;23.60;;;1.60;1.00;;;;;;5075244;28;20491;-58
2020/12/02 06:16:22;;;;;;;43.73;26.10;;;1.60;1.00;;;;;;5075255;28;20446;-56
2020/12/02 06:18:48;;;;;;;39.60;23.80;;;1.60;1.00;;;;;;5074408;28;20429;-56
2020/12/02 06:21:39;;;;;;;40.10;26.57;;;1.70;1.00;;;;;;5074095;28;20425;-57
2020/12/02 06:24:05;;;;;;;42.80;25.50;;;1.60;1.00;;;;;;5074774;28;20446;-56
2020/12/02 06:26:43;;;;;;;42.60;25.37;;;1.60;1.00;;;;;;5074488;28;20462;-56
2020/12/02 06:29:31;;;;;;;42.83;25.50;;;1.70;1.00;;;;;;5074704;28;20427;-56
2020/12/02 06:32:24;;;;;;;42.43;24.90;;;1.80;1.00;;;;;;5073422;28;20526;-55
2020/12/02 06:35:06;;;;;;;45.73;27.67;;;1.70;1.00;;;;;;5073060;28;20460;-56
2020/12/02 06:37:32;;;;;;;42.27;24.20;;;1.10;1.00;;;;;;5054913;28;20415;-54
2020/12/02 06:39:59;;;;;;;42.33;25.73;;;1.20;1.00;;;;;;5068510;28;20529;-53
2020/12/02 06:42:27;;;;;;;48.83;25.60;;;1.10;1.00;;;;;;5074379;28;20870;-56
2020/12/02 06:45:17;;;;;;;42.97;24.30;;;1.10;1.00;;;;;;5074229;28;20482;-55
2020/12/02 06:47:49;;;;;;;48.73;27.07;;;0.90;1.00;;;;;;5074239;28;20410;-54
2020/12/02 06:50:21;;;;;;;46.60;25.97;;;1.00;1.00;;;;;;5073590;28;20516;-53
2020/12/02 06:52:47;;;;;;;51.30;27.37;;;1.00;1.00;;;;;;5074485;28;20852;-52
2020/12/02 06:55:21;;;;;;;43.40;26.90;;;1.00;1.00;;;;;;5074119;28;20434;-53
2020/12/02 06:57:53;;;;;;;42.90;24.77;;;0.90;1.00;;;;;;5072867;28;20171;-56
2020/12/02 07:00:23;;;;;;;50.00;27.40;;;1.00;1.00;;;;;;5073733;28;20423;-56
2020/12/02 07:02:54;;;;;;;45.47;25.33;;;1.00;1.00;;;;;;5074226;28;20445;-57
2020/12/02 07:05:26;;;;;;;49.57;28.47;;;1.00;1.00;;;;;;5073346;28;20462;-54
2020/12/02 07:08:05;;;;;;;48.93;25.80;;;1.00;1.00;;;;;;5073624;28;20426;-56
2020/12/02 07:10:31;;;;;;;44.43;24.70;;;1.10;1.00;;;;;;5074209;28;20411;-56
2020/12/02 07:12:57;;;;;;;47.93;27.17;;;1.10;1.00;;;;;;5073616;28;20428;-56
2020/12/02 07:15:23;;;;;;;35.80;23.90;;;1.10;1.00;;;;;;5073167;28;20269;-56
2020/12/02 07:17:49;;;;;;;36.80;24.33;;;1.20;1.00;;;;;;5073359;28;20202;-56
2020/12/02 07:20:17;;;;;;;37.20;23.13;;;1.10;1.00;;;;;;5073485;28;20478;-56
2020/12/02 07:22:51;;;;;;;37.10;22.90;;;1.40;1.00;;;;;;5074047;28;20214;-56
2020/12/02 07:25:17;;;;;;;29.77;19.30;;;1.30;1.00;;;;;;5072361;28;20450;-56
2020/12/02 07:27:45;;;;;;;33.33;20.50;;;1.50;1.00;;;;;;5073859;28;20770;-56
2020/12/02 07:30:39;;;;;;;34.40;19.90;;;1.60;1.00;;;;;;5073807;28;20244;-56
2020/12/02 07:33:18;;;;;;;37.70;21.23;;;1.70;1.00;;;;;;5072837;28;20771;-56
2020/12/02 07:35:45;;;;;;;27.70;20.13;;;1.80;1.00;;;;;;5068646;28;20908;-54
2020/12/02 07:38:14;;;;;;;27.83;17.63;;;1.90;1.00;;;;;;5073706;28;20439;-56
2020/12/02 07:40:40;;;;;;;29.33;17.80;;;2.00;1.00;;;;;;5073934;28;20430;-54
2020/12/02 07:43:25;;;;;;;25.37;17.37;;;2.00;1.00;;;;;;5073621;28;20444;-54
2020/12/02 07:45:55;;;;;;;32.10;17.03;;;2.10;1.00;;;;;;5073629;28;20485;-54
2020/12/02 07:48:26;;;;;;;28.37;15.97;;;2.10;1.00;;;;;;5073949;28;20502;-55
2020/12/02 07:51:12;;;;;;;26.83;17.67;;;2.20;1.00;;;;;;5072274;28;20438;-54
2020/12/02 07:53:44;;;;;;;31.50;18.33;;;2.30;1.00;;;;;;5073708;28;20409;-54
2020/12/02 07:56:41;;;;;;;27.07;16.53;;;2.30;1.00;;;;;;5072970;28;20439;-55
2020/12/02 07:59:24;;;;;;;28.20;16.07;;;2.30;1.00;;;;;;5073710;28;20512;-54
2020/12/02 08:01:56;;;;;;;29.57;18.90;;;2.40;1.00;;;;;;5072736;28;20453;-58
2020/12/02 08:04:22;;;;;;;28.83;17.37;;;2.40;1.00;;;;;;5073613;28;20416;-54
2020/12/02 08:07:02;;;;;;;26.90;17.20;;;2.50;1.00;;;;;;5073000;28;20443;-56
2020/12/02 08:09:33;;;;;;;27.03;17.53;;;2.50;1.00;;;;;;5073544;28;20175;-54
2020/12/02 08:12:03;;;;;;;26.87;18.53;;;2.60;1.00;;;;;;5073708;28;20422;-53
2020/12/02 08:15:03;;;;;;;28.23;17.00;;;2.60;1.00;;;;;;5073230;28;20440;-54
2020/12/02 08:17:29;;;;;;;26.80;17.40;;;2.60;1.00;;;;;;5072510;28;20435;-54
2020/12/02 08:19:59;;;;;;;28.77;18.10;;;2.60;1.00;;;;;;5073076;28;20438;-55
2020/12/02 08:22:32;;;;;;;30.90;18.30;;;2.70;1.00;;;;;;5073537;28;20441;-54
2020/12/02 08:25:22;;;;;;;27.37;16.87;;;2.90;1.00;;;;;;5071541;28;20458;-53
2020/12/02 08:27:50;;;;;;;27.30;17.47;;;3.10;1.00;;;;;;5070167;28;20433;-56
2020/12/02 08:30:20;;;;;;;28.93;18.37;;;3.10;1.00;;;;;;5076720;28;20471;-54
2020/12/02 08:33:09;;;;;;;27.67;17.00;;;3.20;1.00;;;;;;5074452;28;20455;-54
2020/12/02 08:35:42;;;;;;;27.67;16.97;;;3.20;1.00;;;;;;5057818;28;20462;-55
2020/12/02 08:38:14;;;;;;;26.20;17.20;;;3.30;1.00;;;;;;5076177;28;20439;-56
2020/12/02 08:40:45;;;;;;;29.70;19.40;;;3.20;1.00;;;;;;5077262;28;20931;-54
2020/12/02 08:43:28;;;;;;;24.80;16.53;;;3.10;1.00;;;;;;5076199;28;20419;-55
2020/12/02 08:46:06;;;;;;;28.73;16.13;;;3.20;1.00;;;;;;5075992;28;20480;-56
2020/12/02 08:48:33;;;;;;;26.10;16.40;;;3.10;1.00;;;;;;5076438;28;20432;-54
2020/12/02 08:50:59;;;;;;;24.40;15.53;;;3.10;1.00;;;;;;5075792;28;20501;-54
2020/12/02 08:53:28;;;;;;;26.63;17.03;;;3.10;1.00;;;;;;5076762;28;20870;-56
2020/12/02 08:55:54;;;;;;;36.10;19.23;;;3.10;1.00;;;;;;5076577;28;20516;-56
2020/12/02 08:58:21;;;;;;;29.03;16.93;;;3.20;1.00;;;;;;5075500;28;20438;-54
2020/12/02 09:00:47;;;;;;;26.30;17.03;;;3.30;1.00;;;;;;5076714;28;20417;-56
2020/12/02 09:03:12;;;;;;;27.50;16.60;;;3.30;1.00;;;;;;5076933;28;20415;-56
2020/12/02 09:05:38;;;;;;;30.70;17.90;;;3.40;1.00;;;;;;5076274;28;20456;-55
2020/12/02 09:08:05;;;;;;;25.70;17.60;;;3.40;1.00;;;;;;5075091;28;20186;-54
2020/12/02 09:10:30;;;;;;;29.00;17.93;;;3.50;1.00;;;;;;5076300;28;20175;-55
2020/12/02 09:12:57;;;;;;;29.77;17.50;;;3.50;1.00;;;;;;5076593;28;20407;-56
2020/12/02 09:15:23;;;;;;;28.93;18.00;;;3.50;1.00;;;;;;5075579;28;20184;-54
2020/12/02 09:17:49;;;;;;;27.40;16.67;;;3.60;1.00;;;;;;5076548;28;20442;-57
2020/12/02 09:20:16;;;;;;;33.60;19.17;;;3.50;1.00;;;;;;5076153;28;20499;-57
2020/12/02 09:22:42;;;;;;;27.07;15.87;;;3.60;1.00;;;;;;5075156;28;21045;-56
2020/12/02 09:25:07;;;;;;;27.43;18.00;;;3.80;1.00;;;;;;5075780;28;20555;-55
2020/12/02 09:27:34;;;;;;;26.47;17.23;;;3.70;1.00;;;;;;5075746;28;20251;-54
2020/12/02 09:30:00;;;;;;;27.13;16.40;;;3.70;1.00;;;;;;5076473;28;20221;-53
2020/12/02 09:32:26;;;;;;;28.70;17.67;;;3.70;1.00;;;;;;5076410;28;20821;-57
2020/12/02 09:34:52;;;;;;;29.23;17.57;;;3.80;1.00;;;;;;5074993;28;20475;-55
2020/12/02 09:37:18;;;;;;;30.63;17.63;;;4.00;1.00;;;;;;5075720;28;20609;-55
2020/12/02 09:39:43;;;;;;;24.60;16.00;;;4.00;1.00;;;;;;5075246;28;20183;-57
2020/12/02 09:42:34;;;;;;;28.87;18.17;;;4.00;1.00;;;;;;5075385;28;20441;-55
2020/12/02 09:45:06;;;;;;;31.10;17.93;;;4.10;1.00;;;;;;5067344;28;20302;-56
2020/12/02 09:47:32;;;;;;;28.73;16.40;;;4.10;1.00;;;;;;5074980;28;20490;-54
2020/12/02 09:49:58;;;;;;;30.27;18.03;;;4.20;1.00;;;;;;5075964;28;20426;-54
2020/12/02 09:52:45;;;;;;;27.73;18.00;;;4.60;1.00;;;;;;5074627;28;20543;-53
2020/12/02 09:55:24;;;;;;;25.70;17.03;;;5.60;1.00;;;;;;5076102;28;20595;-54
2020/12/02 09:57:53;;;;;;;29.43;18.23;;;6.20;1.00;;;;;;5075658;28;20429;-54
2020/12/02 10:00:22;;;;;;;35.37;18.27;;;6.20;1.00;;;;;;5075804;28;20742;-57
2020/12/02 10:03:09;;;;;;;25.50;16.33;;;5.80;1.00;;;;;;5075151;28;20529;-60
2020/12/02 10:05:53;;;;;;;27.13;16.67;;;5.40;1.00;;;;;;5075321;28;20489;-55
2020/12/02 10:08:25;;;;;;;27.23;17.40;;;4.90;1.00;;;;;;5055521;28;20413;-54
2020/12/02 10:11:00;;;;;;;29.93;17.50;;;4.60;1.00;;;;;;5063554;28;20446;-55
2020/12/02 10:13:43;;;;;;;24.53;17.03;;;4.40;1.00;;;;;;5074796;28;20936;-56
2020/12/02 10:16:29;;;;;;;27.17;16.93;;;4.30;1.00;;;;;;5075455;28;20410;-54
2020/12/02 10:19:34;;;;;;;38.13;18.00;;;4.20;1.00;;;;;;5058770;28;20432;-55
2020/12/02 10:22:33;;;;;;;31.05;19.45;;;4.20;1.00;;;;;;5073515;28;20426;-56
2020/12/02 10:25:18;;;;;;;29.23;16.77;;;4.30;1.00;;;;;;5075159;28;20281;-57
2020/12/02 10:28:09;;;;;;;30.07;17.90;;;4.30;1.00;;;;;;5074861;28;20742;-54
2020/12/02 10:31:05;;;;;;;25.97;16.80;;;4.30;1.00;;;;;;5063029;28;20439;-54
2020/12/02 10:33:52;;;;;;;27.50;16.43;;;4.30;1.00;;;;;;5074942;28;20452;-56
2020/12/02 10:36:20;;;;;;;34.10;18.83;;;4.30;1.00;;;;;;5074366;28;20442;-54
2020/12/02 10:38:56;;;;;;;33.73;19.10;;;4.30;1.00;;;;;;5070944;28;20429;-54
2020/12/02 10:41:39;;;;;;;30.03;17.90;;;4.30;1.00;;;;;;5073938;28;20432;-54
2020/12/02 10:44:22;;;;;;;28.10;17.10;;;4.40;1.00;;;;;;5053628;28;20414;-54
2020/12/02 10:47:24;;;;;;;29.20;17.77;;;4.30;1.00;;;;;;5061699;28;20498;-56
2020/12/02 10:49:50;;;;;;;28.37;16.00;;;4.40;1.00;;;;;;5069388;28;20433;-56
2020/12/02 10:52:18;;;;;;;30.70;18.27;;;4.40;1.00;;;;;;5063729;28;20461;-56
2020/12/02 10:54:47;;;;;;;30.67;17.27;;;4.50;1.00;;;;;;5074527;28;20179;-56
2020/12/02 10:57:19;;;;;;;26.87;17.77;;;4.60;1.00;;;;;;5074582;28;20437;-56
2020/12/02 10:59:57;;;;;;;31.20;18.70;;;4.60;1.00;;;;;;5074564;28;20448;-53
2020/12/02 11:02:30;;;;;;;31.60;19.53;;;4.70;1.00;;;;;;5068705;28;20961;-55
2020/12/02 11:04:56;;;;;;;28.20;17.73;;;4.60;1.00;;;;;;5059348;28;20946;-56
2020/12/02 11:07:43;;;;;;;27.47;17.57;;;4.60;1.00;;;;;;5074379;28;20432;-56
2020/12/02 11:10:30;;;;;;;29.97;17.40;;;4.70;1.00;;;;;;5074376;28;20397;-56
2020/12/02 11:13:28;;;;;;;29.83;18.97;;;4.70;1.00;;;;;;5073973;28;20418;-56
2020/12/02 11:15:59;;;;;;;28.13;18.80;;;4.80;1.00;;;;;;5073353;28;20436;-53
2020/12/02 11:18:33;;;;;;;26.83;16.90;;;4.70;1.00;;;;;;5074127;28;20425;-54
2020/12/02 11:21:04;;;;;;;28.97;18.67;;;4.70;1.00;;;;;;5074130;28;20398;-54
2020/12/02 11:24:07;;;;;;;28.97;17.57;;;4.70;1.00;;;;;;5074140;28;20394;-54
2020/12/02 11:26:36;;;;;;;30.90;18.87;;;4.80;1.00;;;;;;5073830;28;20476;-54
2020/12/02 11:29:05;;;;;;;28.77;17.57;;;4.70;1.00;;;;;;5073968;28;20528;-54
2020/12/02 11:31:46;;;;;;;29.73;17.03;;;4.70;1.00;;;;;;5073949;28;20504;-56
2020/12/02 11:34:17;;;;;;;25.17;17.50;;;4.70;1.00;;;;;;5074171;28;20495;-54
2020/12/02 11:36:42;;;;;;;32.70;18.30;;;4.60;1.00;;;;;;5074716;28;20474;-54
2020/12/02 11:39:58;;;;;;;29.30;17.33;;;4.80;1.00;;;;;;5073846;28;20421;-54
2020/12/02 11:42:41;;;;;;;29.57;18.20;;;4.70;1.00;;;;;;5056303;28;20191;-57
2020/12/02 11:45:19;;;;;;;32.13;18.40;;;4.80;1.00;;;;;;5051881;28;20478;-55
2020/12/02 11:48:06;;;;;;;28.07;16.00;;;4.90;1.00;;;;;;5053454;28;20499;-56
2020/12/02 11:51:02;;;;;;;30.77;17.20;;;4.60;1.00;;;;;;5066369;28;20445;-53
2020/12/02 11:53:56;;;;;;;27.60;17.27;;;4.60;1.00;;;;;;5073995;28;20444;-53
2020/12/02 11:56:37;;;;;;;31.03;18.20;;;4.50;1.00;;;;;;5074141;28;20862;-53
2020/12/02 11:59:25;;;;;;;28.30;18.43;;;4.50;1.00;;;;;;5073897;28;20500;-54
2020/12/02 12:02:01;;;;;;;29.10;17.73;;;4.30;1.00;;;;;;5074978;28;20413;-54
2020/12/02 12:04:32;;;;;;;26.73;16.90;;;4.30;1.00;;;;;;5078091;28;20414;-58
2020/12/02 12:07:13;;;;;;;27.80;17.80;;;5.60;1.00;;;;;;5078003;28;20421;-55
2020/12/02 12:10:02;;;;;;;31.10;18.23;;;4.30;1.00;;;;;;5077965;28;20849;-54
2020/12/02 12:12:47;;;;;;;26.63;18.17;;;4.30;1.00;;;;;;5077294;28;20508;-55
2020/12/02 12:15:36;;;;;;;34.87;19.97;;;4.30;1.00;;;;;;5057650;28;20437;-54
2020/12/02 12:18:19;;;;;;;28.60;17.90;;;4.30;1.00;;;;;;5057698;28;20421;-54
2020/12/02 12:20:55;;;;;;;26.93;19.30;;;4.20;1.00;;;;;;5057686;28;20406;-57
2020/12/02 12:23:53;;;;;;;26.83;17.27;;;4.20;1.00;;;;;;5057552;28;20417;-54
2020/12/02 12:26:20;;;;;;;29.03;18.47;;;4.30;1.00;;;;;;5057332;28;20472;-56
2020/12/02 12:28:46;;;;;;;32.90;19.40;;;4.30;1.00;;;;;;5057497;28;20421;-56
2020/12/02 12:31:36;;;;;;;30.27;18.60;;;4.20;1.00;;;;;;5057477;28;20417;-53
2020/12/02 12:34:25;;;;;;;29.33;19.40;;;4.10;1.00;;;;;;5057151;28;20708;-56
2020/12/02 12:36:57;;;;;;;30.00;18.60;;;4.00;1.00;;;;;;5057272;28;20416;-56
2020/12/02 12:39:29;;;;;;;36.37;19.90;;;3.90;1.00;;;;;;5057283;28;20413;-53
2020/12/02 12:41:55;;;;;;;35.27;20.90;;;3.80;1.00;;;;;;5068147;28;20433;-55
2020/12/02 12:44:37;;;;;;;27.80;17.77;;;3.80;1.00;;;;;;5076912;28;20505;-54
2020/12/02 12:47:30;;;;;;;33.20;19.13;;;3.80;1.00;;;;;;5077169;28;20747;-57
2020/12/02 12:49:57;;;;;;;33.90;20.60;;;3.70;1.00;;;;;;5076984;28;20864;-56
2020/12/02 12:52:25;;;;;;;34.50;20.07;;;3.80;1.00;;;;;;5077012;28;20428;-55
2020/12/02 12:54:51;;;;;;;37.03;21.03;;;3.90;1.00;;;;;;5076945;28;20739;-54
2020/12/02 12:57:27;;;;;;;34.10;19.60;;;3.90;1.00;;;;;;5076989;28;20429;-53
2020/12/02 12:59:58;;;;;;;36.67;21.00;;;3.80;1.00;;;;;;5076559;28;20510;-54
2020/12/02 13:02:28;;;;;;;34.03;19.97;;;3.80;1.00;;;;;;5076679;28;20775;-54
2020/12/02 13:04:53;;;;;;;37.00;21.13;;;3.80;1.00;;;;;;5076492;28;20500;-54
2020/12/02 13:07:38;;;;;;;34.53;20.67;;;3.80;1.00;;;;;;5076784;28;20410;-54
2020/12/02 13:10:28;;;;;;;35.83;21.93;;;3.70;1.00;;;;;;5076615;28;20230;-54
2020/12/02 13:13:26;;;;;;;38.13;21.33;;;3.60;1.00;;;;;;5073710;28;20438;-54
2020/12/02 13:16:22;;;;;;;34.60;19.30;;;3.60;1.00;;;;;;5076441;28;20444;-54
2020/12/02 13:18:50;;;;;;;34.63;20.97;;;3.60;1.00;;;;;;5076418;28;20416;-54
2020/12/02 13:21:25;;;;;;;39.97;21.07;;;3.60;1.00;;;;;;5076424;28;20415;-54